MAK weather

Malakal Airport
Malakal, Upper Nile State, South Sudan

Public forecast

Using degrees Celsius for public forecast. Weather courtesy of forecast.io.

Closest aviation weather report (METAR) to Malakal Airport

Report is more than 6 hours old.

Closest report is Debra Marcos Airport, 361.8 nm (670.0 km) E. Retrieved 2019/04/13 17:00 UTC (7 months ago):

HADM 131700Z 12005KT 9999 FEW023 30/23 Q1009

Aviation forecast (TAF) for Malakal Airport

Forecast is more than 12 hours old.

Retrieved 2016/01/08 06:00 UTC (4 years ago):

TAF HSSM 080400Z 0806/0912 02004KT 4000 BR SCT140 TEMPO 0809/0815 36005KT 6000